Time;durP1;ratioP1;P1;durP2;ratioP2;P2;SDS_P1;SDS_P2;PMS_P1;PMS_P2;Temp;Humidity;BMP_temperature;BMP_pressure;BME280_temperature;BME280_humidity;BME280_pressure;Samples;Min_cycle;Max_cycle;Signal;HPM_P1;HPM_P2
2022/08/12 00:44:23;;;;;;;10.68;8.50;;;18.20;99.90;;;;;;5112316;28;20111;-87
2022/08/12 00:47:00;;;;;;;9.43;8.10;;;18.30;99.90;;;;;;5100413;27;20050;-86
2022/08/12 00:49:27;;;;;;;10.02;7.82;;;18.40;99.90;;;;;;5101180;27;20049;-87
2022/08/12 00:52:10;;;;;;;9.63;7.75;;;18.30;99.90;;;;;;5117749;27;20046;-85
2022/08/12 00:54:39;;;;;;;9.95;8.63;;;18.40;99.90;;;;;;5090664;28;20051;-86
2022/08/12 00:57:09;;;;;;;11.10;8.30;;;18.10;99.90;;;;;;5080749;28;20047;-85
2022/08/12 00:59:41;;;;;;;9.02;7.35;;;18.20;99.90;;;;;;5097395;28;20046;-85
2022/08/12 01:02:07;;;;;;;9.48;7.75;;;;;;;;;;5097372;28;20138;-87
2022/08/12 01:12:49;;;;;;;10.65;7.95;;;;;;;;;;5117894;27;20130;-88
2022/08/12 01:15:17;;;;;;;12.93;7.57;;;17.80;99.90;;;;;;5095880;28;20547;-85
2022/08/12 01:17:44;;;;;;;10.60;7.65;;;18.00;99.90;;;;;;5110591;28;20044;-88
2022/08/12 01:20:18;;;;;;;8.27;7.30;;;18.10;99.90;;;;;;5080099;28;20044;-87
2022/08/12 01:23:07;;;;;;;10.98;7.85;;;17.90;99.90;;;;;;5131059;27;20066;-87
2022/08/12 01:25:37;;;;;;;10.02;6.72;;;18.00;99.90;;;;;;5115598;27;20126;-83
2022/08/12 01:28:04;;;;;;;8.77;6.80;;;;;;;;;;5097188;28;20068;-83
2022/08/12 01:30:32;;;;;;;10.82;6.85;;;18.20;99.90;;;;;;5096865;28;20043;-83
2022/08/12 01:33:01;;;;;;;6.95;6.25;;;18.00;99.90;;;;;;5096926;28;20122;-83
2022/08/12 01:35:31;;;;;;;7.03;6.32;;;17.70;99.90;;;;;;5096609;28;20048;-82
2022/08/12 01:38:04;;;;;;;9.82;7.38;;;17.70;99.90;;;;;;5113714;27;20039;-82
2022/08/12 01:40:33;;;;;;;7.80;5.78;;;17.80;99.90;;;;;;5117420;27;20419;-82
2022/08/12 01:43:20;;;;;;;9.57;6.88;;;17.70;99.90;;;;;;5117046;27;20383;-82
2022/08/12 01:46:05;;;;;;;10.15;6.95;;;17.80;99.90;;;;;;5099978;27;20126;-83
2022/08/12 01:49:01;;;;;;;7.43;5.97;;;17.60;99.90;;;;;;5115825;27;20187;-83
2022/08/12 01:51:41;;;;;;;9.25;7.22;;;17.60;99.90;;;;;;5099793;27;20047;-83
2022/08/12 01:54:13;;;;;;;7.70;6.90;;;17.60;99.90;;;;;;5099511;27;20046;-82
2022/08/12 01:57:09;;;;;;;9.18;6.50;;;17.50;99.90;;;;;;5116079;28;20043;-82
2022/08/12 02:00:05;;;;;;;9.05;6.68;;;17.50;99.90;;;;;;5111156;28;20456;-82
2022/08/12 02:02:45;;;;;;;8.48;7.15;;;17.50;99.90;;;;;;5115239;27;20047;-82
2022/08/12 02:11:23;;;;;;;10.57;7.30;;;17.50;99.90;;;;;;5095999;28;20055;-84
2022/08/12 02:14:27;;;;;;;14.00;7.85;;;17.30;99.90;;;;;;5096386;28;20404;-85
2022/08/12 02:17:00;;;;;;;7.72;6.47;;;17.30;99.90;;;;;;5079445;28;20563;-84
2022/08/12 02:19:38;;;;;;;11.07;7.75;;;17.30;99.90;;;;;;5103654;27;20047;-85
2022/08/12 02:22:37;;;;;;;9.05;7.35;;;17.10;99.90;;;;;;5116584;27;20412;-85
2022/08/12 02:25:10;;;;;;;8.77;7.18;;;17.20;99.90;;;;;;5116181;27;20042;-84
2022/08/12 02:27:41;;;;;;;12.40;7.93;;;;;;;;;;5116517;27;20047;-83
2022/08/12 02:30:10;;;;;;;9.45;7.07;;;17.40;99.90;;;;;;5096996;27;20039;-86
2022/08/12 02:32:39;;;;;;;12.48;6.93;;;17.50;99.90;;;;;;5099343;27;20380;-84
2022/08/12 02:35:13;;;;;;;16.30;6.15;;;17.30;99.90;;;;;;5116040;27;20047;-84
2022/08/12 02:37:40;;;;;;;7.70;6.35;;;;;;;;;;5099571;27;20522;-83
2022/08/12 02:40:07;;;;;;;9.02;6.95;;;17.40;99.90;;;;;;5097092;27;20045;-82
2022/08/12 02:42:35;;;;;;;8.95;7.60;;;17.40;99.90;;;;;;5115918;27;20039;-83
2022/08/12 02:45:07;;;;;;;10.18;6.60;;;17.30;99.90;;;;;;5099470;27;20039;-85
2022/08/12 02:47:40;;;;;;;7.93;6.97;;;17.20;99.90;;;;;;5098940;27;20043;-82
2022/08/12 02:50:08;;;;;;;9.87;6.67;;;17.20;99.90;;;;;;5099107;27;20038;-84
2022/08/12 02:52:36;;;;;;;11.75;8.05;;;17.30;99.90;;;;;;5084541;27;20043;-85
2022/08/12 02:55:20;;;;;;;8.50;5.65;;;17.20;99.90;;;;;;5115536;27;20108;-85
2022/08/12 02:57:46;;;;;;;13.35;6.82;;;;;;;;;;5115680;27;20050;-89
2022/08/12 03:00:17;;;;;;;9.10;6.63;;;17.20;99.90;;;;;;5115877;27;20043;-87
2022/08/12 03:02:45;;;;;;;7.05;6.07;;;17.00;99.90;;;;;;5085808;28;20040;-86
2022/08/12 03:05:16;;;;;;;6.57;5.97;;;17.10;99.90;;;;;;5107873;28;20053;-85
2022/08/12 03:07:48;;;;;;;9.77;5.97;;;16.80;99.90;;;;;;5077814;28;20487;-85
2022/08/12 03:10:15;;;;;;;6.40;5.70;;;;;;;;;;5094455;28;20484;-85
2022/08/12 03:12:45;;;;;;;9.15;6.38;;;17.00;99.90;;;;;;5077821;28;20131;-84
2022/08/12 03:15:16;;;;;;;8.15;5.50;;;;;;;;;;5106391;27;20507;-85
2022/08/12 03:18:13;;;;;;;5.65;4.80;;;16.80;99.90;;;;;;5114553;27;20054;-84
2022/08/12 03:20:39;;;;;;;6.50;5.25;;;;;;;;;;5098028;27;20050;-85
2022/08/12 03:23:12;;;;;;;5.85;4.78;;;16.70;99.90;;;;;;5097986;27;20491;-84
2022/08/12 03:25:39;;;;;;;6.10;5.32;;;16.50;99.90;;;;;;5115202;27;20050;-82
2022/08/12 03:28:09;;;;;;;6.65;6.05;;;16.70;99.90;;;;;;5097848;27;20047;-82
2022/08/12 03:30:36;;;;;;;9.07;6.15;;;16.60;99.90;;;;;;5100387;28;20039;-82
2022/08/12 03:33:02;;;;;;;7.32;6.13;;;;;;;;;;5094473;28;20115;-83
2022/08/12 03:35:34;;;;;;;11.13;6.20;;;16.80;99.90;;;;;;5077638;28;20047;-85
2022/08/12 03:38:14;;;;;;;8.60;5.97;;;16.60;99.90;;;;;;5094999;28;20050;-82
2022/08/12 04:00:57;;;;;;;5.90;4.97;;;;;;;;;;5095864;28;19927;-83
2022/08/12 04:06:09;;;;;;;5.75;4.38;;;16.40;99.90;;;;;;5113119;27;20087;-83
2022/08/12 04:08:35;;;;;;;4.35;3.95;;;16.40;99.90;;;;;;5097770;27;20499;-83
2022/08/12 04:13:47;;;;;;;4.10;3.70;;;16.30;99.90;;;;;;5113938;27;20491;-85
2022/08/12 04:16:14;;;;;;;4.70;4.20;;;;;;;;;;5095328;28;20057;-84
2022/08/12 04:18:41;;;;;;;6.00;5.40;;;16.30;99.90;;;;;;5093854;28;20047;-88
2022/08/12 04:21:10;;;;;;;6.63;5.88;;;15.90;99.90;;;;;;5076291;28;20046;-86
2022/08/12 04:23:37;;;;;;;6.47;5.20;;;15.90;99.90;;;;;;5076967;28;20081;-84
2022/08/12 04:26:05;;;;;;;4.18;3.85;;;16.20;99.90;;;;;;5077071;28;20051;-84
2022/08/12 04:28:31;;;;;;;4.38;3.83;;;;;;;;;;5110153;28;20098;-87
2022/08/12 04:30:57;;;;;;;4.28;3.97;;;;;;;;;;5114243;28;20047;-85
2022/08/12 04:33:24;;;;;;;4.45;4.05;;;;;;;;;;5097136;28;20043;-88
2022/08/12 04:35:50;;;;;;;4.35;3.95;;;;;;;;;;5096899;28;20096;-87
2022/08/12 04:38:16;;;;;;;5.53;4.35;;;;;;;;;;5089416;28;20441;-87
2022/08/12 04:40:45;;;;;;;8.55;5.07;;;;;;;;;;5077114;28;20415;-84
2022/08/12 04:43:11;;;;;;;5.45;4.95;;;;;;;;;;5093838;28;20090;-84
2022/08/12 04:45:38;;;;;;;8.95;6.18;;;15.90;99.90;;;;;;5093621;28;20408;-87
2022/08/12 04:48:04;;;;;;;6.25;5.65;;;;;;;;;;5095346;28;20199;-82
2022/08/12 04:50:31;;;;;;;8.32;6.15;;;;;;;;;;5114252;28;20082;-82
2022/08/12 04:52:59;;;;;;;5.78;5.28;;;15.90;99.90;;;;;;5110277;28;20047;-82
2022/08/12 04:55:26;;;;;;;6.65;5.95;;;15.90;99.90;;;;;;5093433;28;20048;-82
2022/08/12 04:57:53;;;;;;;7.28;5.70;;;;;;;;;;5093412;28;20036;-82
2022/08/12 05:00:19;;;;;;;8.57;5.93;;;16.00;99.90;;;;;;5107027;28;20122;-82
2022/08/12 05:02:45;;;;;;;11.40;8.20;;;15.70;99.90;;;;;;5093343;28;20101;-82
2022/08/12 05:05:21;;;;;;;9.88;6.70;;;15.90;99.90;;;;;;5110386;28;20047;-82
2022/08/12 05:07:48;;;;;;;10.63;8.07;;;16.10;99.90;;;;;;5110419;28;20572;-82
2022/08/12 05:10:15;;;;;;;12.73;8.35;;;16.00;99.90;;;;;;5108390;28;20052;-82
2022/08/12 05:12:45;;;;;;;10.73;8.23;;;16.00;99.90;;;;;;5110633;28;20450;-82
2022/08/12 05:15:14;;;;;;;12.43;8.07;;;;;;;;;;5109016;28;20048;-82
2022/08/12 05:17:43;;;;;;;10.73;9.07;;;16.10;99.90;;;;;;5093194;28;20059;-82
2022/08/12 05:20:10;;;;;;;10.88;8.02;;;;;;;;;;5090171;28;20039;-82
2022/08/12 05:22:36;;;;;;;14.30;8.55;;;16.30;99.90;;;;;;5080955;28;20525;-82
2022/08/12 05:25:03;;;;;;;11.52;8.93;;;;;;;;;;5090084;28;20036;-82
2022/08/12 05:27:28;;;;;;;13.13;9.05;;;16.50;99.90;;;;;;5089873;28;20138;-82
2022/08/12 05:29:54;;;;;;;12.63;8.10;;;;;;;;;;5056510;28;20129;-82
2022/08/12 05:32:20;;;;;;;13.02;7.82;;;16.50;99.90;;;;;;5105037;28;20185;-82
2022/08/12 05:34:47;;;;;;;11.07;8.50;;;16.50;99.90;;;;;;5114958;28;20126;-82
2022/08/12 05:37:13;;;;;;;13.60;8.02;;;16.60;99.90;;;;;;5113975;28;20042;-82
2022/08/12 05:39:40;;;;;;;9.70;7.60;;;;;;;;;;5097044;28;20437;-82
2022/08/12 05:42:07;;;;;;;10.18;6.43;;;16.80;99.90;;;;;;5111910;28;20114;-82
2022/08/12 05:44:33;;;;;;;8.25;6.45;;;16.90;99.90;;;;;;5113920;28;20066;-82
2022/08/12 05:46:58;;;;;;;11.32;6.88;;;17.00;99.90;;;;;;5113169;28;20435;-82
2022/08/12 05:49:25;;;;;;;6.90;5.75;;;;;;;;;;5096717;28;20365;-82
2022/08/12 05:51:51;;;;;;;9.05;6.82;;;17.30;99.90;;;;;;5113606;28;20079;-82
2022/08/12 05:54:17;;;;;;;26.60;6.80;;;;;;;;;;5128502;27;20585;-82
2022/08/12 05:56:44;;;;;;;7.88;5.78;;;;;;;;;;5096227;28;20059;-82
2022/08/12 05:59:10;;;;;;;25.20;6.95;;;;;;;;;;5096578;28;20403;-82
2022/08/12 06:01:37;;;;;;;10.27;6.30;;;17.90;99.90;;;;;;5096165;28;20090;-82
2022/08/12 06:04:03;;;;;;;9.75;6.68;;;;;;;;;;5111545;28;20054;-82
2022/08/12 06:06:37;;;;;;;10.23;5.85;;;;;;;;;;5113376;28;20032;-82
2022/08/12 06:09:03;;;;;;;;;;;17.80;99.90;;;;;;5114387;28;20051;-82
2022/08/12 06:11:29;;;;;;;15.48;6.57;;;;;;;;;;5112929;28;19920;-82
2022/08/12 06:13:57;;;;;;;7.13;5.90;;;;;;;;;;5110692;28;20035;-82
2022/08/12 06:16:24;;;;;;;11.32;6.68;;;18.10;99.90;;;;;;5076040;28;20052;-82
2022/08/12 06:18:50;;;;;;;14.48;5.78;;;;;;;;;;5092232;28;20072;-87
2022/08/12 06:21:18;;;;;;;9.82;5.50;;;18.20;99.90;;;;;;5092734;28;20048;-88
2022/08/12 06:23:44;;;;;;;11.73;6.35;;;18.30;99.90;;;;;;5092701;28;20039;-87
2022/08/12 06:26:13;;;;;;;11.48;5.82;;;18.50;99.90;;;;;;5110826;28;20712;-84
2022/08/12 06:28:39;;;;;;;7.22;5.18;;;18.70;99.90;;;;;;5112718;28;20044;-88
2022/08/12 06:31:05;;;;;;;7.78;5.93;;;;;;;;;;5114217;28;20039;-88
2022/08/12 06:33:33;;;;;;;14.55;5.68;;;18.50;99.90;;;;;;5112414;28;20499;-86
2022/08/12 06:36:00;;;;;;;7.20;5.82;;;;;;;;;;5104191;28;20041;-88
2022/08/12 06:38:29;;;;;;;11.57;5.35;;;18.60;99.90;;;;;;5093483;28;20508;-89
2022/08/12 06:43:43;;;;;;;12.38;6.57;;;19.00;99.90;;;;;;5111915;28;20051;-86
2022/08/12 06:46:10;;;;;;;8.10;5.85;;;18.80;99.90;;;;;;5111993;28;20114;-85
2022/08/12 06:48:36;;;;;;;10.48;5.63;;;;;;;;;;5095868;28;20093;-85
2022/08/12 06:51:02;;;;;;;6.30;5.65;;;;;;;;;;5112413;28;20083;-87
2022/08/12 06:53:31;;;;;;;12.73;6.32;;;19.00;99.90;;;;;;5095444;28;20499;-85
2022/08/12 06:55:59;;;;;;;15.30;5.88;;;19.40;99.90;;;;;;5095600;28;20075;-83
2022/08/12 06:58:27;;;;;;;5.53;4.85;;;19.40;99.90;;;;;;5090918;28;20051;-82
2022/08/12 07:00:54;;;;;;;11.32;5.80;;;19.50;99.90;;;;;;5074656;28;20492;-82
2022/08/12 07:03:24;;;;;;;254.30;29.13;;;19.60;99.90;;;;;;5074996;28;20044;-82
2022/08/12 07:05:50;;;;;;;47.13;7.40;;;;;;;;;;5074438;28;20058;-83
2022/08/12 07:08:16;;;;;;;10.45;4.38;;;19.60;99.90;;;;;;5101666;28;20389;-83
2022/08/12 07:10:58;;;;;;;6.10;4.93;;;19.90;99.90;;;;;;5111856;28;20050;-83
2022/08/12 07:13:37;;;;;;;4.93;4.25;;;20.00;99.90;;;;;;5095191;28;20048;-83
2022/08/12 07:16:03;;;;;;;11.52;4.10;;;20.20;99.90;;;;;;5111977;28;20466;-83
2022/08/12 07:18:31;;;;;;;4.82;3.75;;;20.50;99.90;;;;;;5106591;28;20040;-83
2022/08/12 07:21:00;;;;;;;6.57;4.43;;;;;;;;;;5109878;28;20050;-83
2022/08/12 07:23:26;;;;;;;5.88;4.10;;;20.60;99.90;;;;;;5094658;28;20055;-83
2022/08/12 07:25:52;;;;;;;5.15;4.10;;;;;;;;;;5111466;28;20047;-83
2022/08/12 07:28:22;;;;;;;4.65;3.80;;;20.70;99.90;;;;;;5111854;28;20126;-84
2022/08/12 07:30:49;;;;;;;7.30;4.28;;;20.90;99.90;;;;;;5110191;28;20040;-83
2022/08/12 07:33:16;;;;;;;5.25;4.13;;;20.80;99.90;;;;;;5094389;28;20069;-83
2022/08/12 07:35:49;;;;;;;12.15;3.30;;;21.00;99.90;;;;;;5110875;28;20489;-83
2022/08/12 07:38:29;;;;;;;19.52;4.10;;;21.10;99.90;;;;;;5111431;28;20050;-83
2022/08/12 07:41:02;;;;;;;4.78;3.85;;;21.30;99.90;;;;;;5086398;28;20047;-83
2022/08/12 07:43:29;;;;;;;19.15;4.70;;;21.20;99.90;;;;;;5074120;28;20044;-83
2022/08/12 07:45:56;;;;;;;6.15;3.50;;;21.30;99.90;;;;;;5090904;28;20052;-82
2022/08/12 07:48:23;;;;;;;4.68;3.42;;;21.50;99.90;;;;;;5076611;28;20043;-82
2022/08/12 07:50:49;;;;;;;4.15;3.40;;;;;;;;;;5089226;28;20496;-82
2022/08/12 07:53:15;;;;;;;10.90;3.58;;;21.50;99.90;;;;;;5073295;28;20087;-82
2022/08/12 07:55:41;;;;;;;4.53;3.22;;;21.80;99.90;;;;;;5072714;28;20563;-83
2022/08/12 07:58:07;;;;;;;6.63;3.13;;;21.90;99.90;;;;;;5093554;28;20496;-84
2022/08/12 08:00:34;;;;;;;7.30;3.55;;;22.10;99.90;;;;;;5074131;28;20178;-83
